createdAt,value
2018-05-03T00:01:48.351Z,62.99
2018-05-03T00:04:16.800Z,63.20
2018-05-03T00:06:45.228Z,63.29
2018-05-03T00:09:13.648Z,64.18
2018-05-03T00:11:42.096Z,64.00
2018-05-03T00:14:10.508Z,64.13
2018-05-03T00:16:38.916Z,64.32
2018-05-03T00:19:07.376Z,64.29
2018-05-03T00:21:35.800Z,64.62
2018-05-03T00:24:04.217Z,64.55
2018-05-03T00:26:32.683Z,64.54
2018-05-03T00:29:01.096Z,64.70
2018-05-03T00:31:29.521Z,64.47
2018-05-03T00:33:57.998Z,65.07
2018-05-03T00:36:26.427Z,64.80
2018-05-03T00:38:54.842Z,64.81
2018-05-03T00:41:23.320Z,64.45
2018-05-03T00:43:51.732Z,64.72
2018-05-03T00:46:20.143Z,65.10
2018-05-03T00:48:48.596Z,65.59
2018-05-03T00:51:17.028Z,65.43
2018-05-03T00:53:45.444Z,65.14
2018-05-03T00:56:13.930Z,65.25
2018-05-03T00:58:42.348Z,65.66
2018-05-03T01:01:10.771Z,65.80
2018-05-03T01:03:39.248Z,65.64
2018-05-03T01:06:07.664Z,65.88
2018-05-03T01:08:36.072Z,65.74
2018-05-03T01:11:04.533Z,65.75
2018-05-03T01:13:32.951Z,65.35
2018-05-03T01:16:01.365Z,65.44
2018-05-03T01:18:29.831Z,67.11
2018-05-03T01:20:58.250Z,66.29
2018-05-03T01:23:26.669Z,66.62
2018-05-03T01:25:55.127Z,66.96
2018-05-03T01:28:23.561Z,66.08
2018-05-03T01:30:51.988Z,66.48
2018-05-03T01:33:20.436Z,66.50
2018-05-03T01:36:00.716Z,66.68
2018-05-03T01:38:29.176Z,66.06
2018-05-03T01:40:57.607Z,65.67
2018-05-03T01:43:26.032Z,66.05
2018-05-03T01:45:54.487Z,66.27
2018-05-03T01:48:22.898Z,66.37
2018-05-03T01:50:51.328Z,66.53
2018-05-03T01:53:19.780Z,66.98
2018-05-03T01:55:48.204Z,67.06
2018-05-03T01:58:16.615Z,67.14
2018-05-03T02:00:45.090Z,66.96
2018-05-03T02:03:13.500Z,66.80
2018-05-03T02:05:41.950Z,67.23
2018-05-03T02:08:10.601Z,67.51
2018-05-03T02:10:39.045Z,67.70
2018-05-03T02:13:07.462Z,67.89
2018-05-03T02:15:35.932Z,67.30
2018-05-03T02:18:04.389Z,67.56
2018-05-03T02:20:32.804Z,67.53
2018-05-03T02:23:01.264Z,67.23
2018-05-03T02:25:29.681Z,67.37
2018-05-03T02:27:58.101Z,67.15
2018-05-03T02:30:26.549Z,67.11
2018-05-03T02:32:54.971Z,67.60
2018-05-03T02:35:23.388Z,67.94
2018-05-03T02:37:51.841Z,67.92
2018-05-03T02:40:20.251Z,67.99
2018-05-03T02:42:48.670Z,68.28
2018-05-03T02:45:17.128Z,68.81
2018-05-03T02:47:45.544Z,69.46
2018-05-03T02:50:13.976Z,69.05
2018-05-03T02:52:42.438Z,68.99
2018-05-03T02:55:10.857Z,68.94
2018-05-03T02:57:56.917Z,68.81
2018-05-03T03:00:42.839Z,68.75
2018-05-03T03:03:28.804Z,68.45
2018-05-03T03:06:09.109Z,68.30
2018-05-03T03:09:06.501Z,68.04
2018-05-03T03:15:06.284Z,67.95
2018-05-03T03:17:52.344Z,68.01
2018-05-03T03:23:47.624Z,67.59
2018-05-03T03:29:59.540Z,67.76
2018-05-03T03:32:39.804Z,67.76
2018-05-03T03:38:34.879Z,67.93
2018-05-03T03:41:15.003Z,68.40
2018-05-03T03:43:55.088Z,67.72
2018-05-03T03:46:23.503Z,67.72
2018-05-03T03:48:51.917Z,67.92
2018-05-03T03:51:20.366Z,68.20
2018-05-03T03:53:48.789Z,67.80
2018-05-03T03:56:17.208Z,67.90
2018-05-03T03:58:45.663Z,67.25
2018-05-03T04:01:14.084Z,67.40
2018-05-03T04:03:42.494Z,67.40
2018-05-03T04:06:10.936Z,67.37
2018-05-03T04:08:39.353Z,67.76
2018-05-03T04:11:07.768Z,67.64
2018-05-03T04:13:36.244Z,67.75
2018-05-03T04:16:04.657Z,67.56
2018-05-03T04:18:44.971Z,67.37
2018-05-03T04:21:25.252Z,67.32
2018-05-03T04:24:14.256Z,67.30
2018-05-03T04:26:42.672Z,67.32
2018-05-03T04:29:11.084Z,67.43
2018-05-03T04:31:39.557Z,67.42
2018-05-03T04:34:07.985Z,67.62
2018-05-03T04:36:36.399Z,67.62
2018-05-03T04:39:05.797Z,68.17
2018-05-03T04:41:34.200Z,68.30
2018-05-03T04:44:02.632Z,68.13
2018-05-03T04:46:31.085Z,69.20
2018-05-03T04:48:59.500Z,68.45
2018-05-03T04:51:27.917Z,68.18
2018-05-03T04:53:56.376Z,68.63
2018-05-03T04:56:24.801Z,68.69
2018-05-03T04:58:53.216Z,69.00
2018-05-03T05:01:21.675Z,69.06
2018-05-03T05:03:50.080Z,68.59
2018-05-03T05:06:18.492Z,68.42
2018-05-03T05:08:46.965Z,68.02
2018-05-03T05:11:15.381Z,67.90
2018-05-03T05:13:43.801Z,67.27
2018-05-03T05:16:12.276Z,66.96
2018-05-03T05:18:40.692Z,66.44
2018-05-03T05:21:09.112Z,65.32
2018-05-03T05:23:37.632Z,64.98
2018-05-03T05:26:06.040Z,65.24
2018-05-03T05:28:34.456Z,64.56
2018-05-03T05:31:02.932Z,64.51
2018-05-03T05:33:31.357Z,64.13
2018-05-03T05:35:59.779Z,65.12
2018-05-03T05:38:28.233Z,65.51
2018-05-03T05:40:56.703Z,64.30
2018-05-03T05:43:25.127Z,63.59
2018-05-03T05:45:53.576Z,64.02
2018-05-03T05:48:21.977Z,63.97
2018-05-03T05:50:50.401Z,64.10
2018-05-03T05:53:18.865Z,63.74
2018-05-03T05:55:47.296Z,63.46
2018-05-03T05:58:15.720Z,63.64
2018-05-03T06:00:44.188Z,63.71
2018-05-03T06:03:12.597Z,63.58
2018-05-03T06:05:41.027Z,63.57
2018-05-03T06:08:09.514Z,63.30
2018-05-03T06:10:38.024Z,63.71
2018-05-03T06:13:06.457Z,62.87
2018-05-03T06:15:34.935Z,62.44
2018-05-03T06:18:03.369Z,62.94
2018-05-03T06:20:31.796Z,64.07
2018-05-03T06:23:00.285Z,63.40
2018-05-03T06:25:28.728Z,63.11
2018-05-03T06:27:57.161Z,62.71
2018-05-03T06:30:25.656Z,63.58
2018-05-03T06:32:54.090Z,63.83
2018-05-03T06:35:22.543Z,63.46
2018-05-03T06:37:51.033Z,62.76
2018-05-03T06:40:19.468Z,63.15
2018-05-03T06:42:47.903Z,62.95
2018-05-03T06:45:16.460Z,63.26
2018-05-03T06:47:44.832Z,63.73
2018-05-03T06:50:13.276Z,63.43
2018-05-03T06:52:41.741Z,63.04
2018-05-03T06:55:10.177Z,64.02
2018-05-03T06:57:38.624Z,63.58
2018-05-03T07:00:07.108Z,64.47
2018-05-03T07:02:35.547Z,65.07
2018-05-03T07:05:04.085Z,64.64
2018-05-03T07:07:32.572Z,64.38
2018-05-03T07:10:01.096Z,64.79
2018-05-03T07:12:29.484Z,65.28
2018-05-03T07:14:57.969Z,64.77
2018-05-03T07:17:26.512Z,65.00
2018-05-03T07:19:54.947Z,65.87
2018-05-03T07:22:23.439Z,66.04
2018-05-03T07:24:51.879Z,66.00
2018-05-03T07:27:20.315Z,64.71
2018-05-03T07:29:48.776Z,64.68
2018-05-03T07:32:17.223Z,64.04
2018-05-03T07:34:45.675Z,63.63
2018-05-03T07:37:14.148Z,62.68
2018-05-03T07:39:42.575Z,60.69
2018-05-03T07:42:11.000Z,60.60
2018-05-03T07:44:39.460Z,60.46
2018-05-03T07:47:07.901Z,59.69
2018-05-03T07:49:36.328Z,59.09
2018-05-03T07:52:04.831Z,58.51
2018-05-03T07:54:33.264Z,56.36
2018-05-03T07:57:01.680Z,56.35
2018-05-03T07:59:30.151Z,55.97
2018-05-03T08:01:58.606Z,56.64
2018-05-03T08:04:27.052Z,55.58
2018-05-03T08:06:55.533Z,55.55
2018-05-03T08:09:23.951Z,55.57
2018-05-03T08:11:52.372Z,55.33
2018-05-03T08:14:20.824Z,56.04
2018-05-03T08:16:49.243Z,56.16
2018-05-03T08:19:17.667Z,54.55
2018-05-03T08:21:46.128Z,52.42
2018-05-03T08:24:14.551Z,52.36
2018-05-03T08:26:42.975Z,52.99
2018-05-03T08:29:11.436Z,51.78
2018-05-03T08:31:39.873Z,52.17
2018-05-03T08:34:08.310Z,51.72
2018-05-03T08:36:36.802Z,51.93
2018-05-03T08:39:06.040Z,52.08
2018-05-03T08:41:34.457Z,51.50
2018-05-03T08:44:02.952Z,52.38
2018-05-03T08:46:31.408Z,52.00
2018-05-03T08:48:59.829Z,50.81
2018-05-03T08:51:28.282Z,51.62
2018-05-03T08:53:56.725Z,50.77
2018-05-03T08:56:25.132Z,48.13
2018-05-03T08:58:53.603Z,46.52
2018-05-03T09:01:22.137Z,45.61
2018-05-03T09:03:50.484Z,48.11
2018-05-03T09:06:18.972Z,48.42
2018-05-03T09:08:47.404Z,48.16
2018-05-03T09:11:15.858Z,47.66
2018-05-03T09:13:44.331Z,48.71
2018-05-03T09:16:12.753Z,46.68
2018-05-03T09:18:41.179Z,46.41
2018-05-03T09:21:09.636Z,47.30
2018-05-03T09:23:38.059Z,47.94
2018-05-03T09:26:06.500Z,47.46
2018-05-03T09:28:34.981Z,44.28
2018-05-03T09:31:03.414Z,43.71
2018-05-03T09:33:31.849Z,43.27
2018-05-03T09:36:00.316Z,44.75
2018-05-03T09:38:28.822Z,42.89
2018-05-03T09:40:57.213Z,42.62
2018-05-03T09:43:25.676Z,41.48
2018-05-03T09:45:54.105Z,40.79
2018-05-03T09:48:22.532Z,42.31
2018-05-03T09:50:51.005Z,42.64
2018-05-03T09:53:19.431Z,39.09
2018-05-03T09:55:47.864Z,41.17
2018-05-03T09:58:16.348Z,38.63
2018-05-03T10:00:44.784Z,38.27
2018-05-03T10:03:13.208Z,41.04
2018-05-03T10:05:41.676Z,41.99
2018-05-03T10:08:10.104Z,41.84
2018-05-03T10:10:38.520Z,40.58
2018-05-03T10:13:07.004Z,42.12
2018-05-03T10:15:35.428Z,41.71
2018-05-03T10:18:03.851Z,41.86
2018-05-03T10:20:32.336Z,40.60
2018-05-03T10:23:00.760Z,40.26
2018-05-03T10:25:29.253Z,40.26
2018-05-03T10:27:57.729Z,40.40
2018-05-03T10:30:26.171Z,39.43
2018-05-03T10:32:54.610Z,39.23
2018-05-03T10:35:23.060Z,39.76
2018-05-03T10:37:51.480Z,39.83
2018-05-03T10:40:19.902Z,39.06
2018-05-03T10:42:48.384Z,39.13
2018-05-03T10:45:16.824Z,40.04
2018-05-03T10:47:45.254Z,40.39
2018-05-03T10:50:13.724Z,38.36
2018-05-03T10:52:42.143Z,34.90
2018-05-03T10:55:10.588Z,36.00
2018-05-03T10:57:39.047Z,34.68
2018-05-03T11:00:07.491Z,34.54
2018-05-03T11:02:35.899Z,35.15
2018-05-03T11:05:04.380Z,35.02
2018-05-03T11:07:32.815Z,33.83
2018-05-03T11:10:01.241Z,34.12
2018-05-03T11:12:29.702Z,35.19
2018-05-03T11:14:58.132Z,34.31
2018-05-03T11:17:26.552Z,31.30
2018-05-03T11:19:55.009Z,31.65
2018-05-03T11:22:23.433Z,32.70
2018-05-03T11:24:51.868Z,32.12
2018-05-03T11:27:20.323Z,35.96
2018-05-03T11:29:48.741Z,35.90
2018-05-03T11:32:17.170Z,34.73
2018-05-03T11:34:45.673Z,32.13
2018-05-03T11:37:14.116Z,31.69
2018-05-03T11:39:42.561Z,32.90
2018-05-03T11:42:11.040Z,29.74
2018-05-03T11:44:39.468Z,30.63
2018-05-03T11:47:07.896Z,30.74
2018-05-03T11:49:36.363Z,31.11
2018-05-03T11:52:04.805Z,31.67
2018-05-03T11:54:33.220Z,31.08
2018-05-03T11:57:01.700Z,31.37
2018-05-03T12:02:21.296Z,32.23
2018-05-03T12:04:49.720Z,31.50
2018-05-03T12:07:18.144Z,33.57
2018-05-03T12:09:46.613Z,32.53
2018-05-03T12:12:15.041Z,33.00
2018-05-03T12:14:43.461Z,32.31
2018-05-03T12:17:11.932Z,31.72
2018-05-03T12:19:40.361Z,32.98
2018-05-03T12:22:08.781Z,31.50
2018-05-03T12:24:37.244Z,34.53
2018-05-03T12:29:56.848Z,32.75
2018-05-03T12:32:25.272Z,31.31
2018-05-03T12:34:53.708Z,31.59
2018-05-03T12:37:22.181Z,32.76
2018-05-03T12:39:50.604Z,32.04
2018-05-03T12:42:19.024Z,35.54
2018-05-03T12:44:47.505Z,36.25
2018-05-03T12:47:15.935Z,34.57
2018-05-03T12:49:44.356Z,34.70
2018-05-03T12:52:12.810Z,33.24
2018-05-03T12:54:41.229Z,30.41
2018-05-03T12:57:09.654Z,33.26
2018-05-03T12:59:38.134Z,31.63
2018-05-03T13:02:06.562Z,34.02
2018-05-03T13:04:34.984Z,32.52
2018-05-03T13:07:03.933Z,30.44
2018-05-03T13:09:32.348Z,30.30
2018-05-03T13:12:00.774Z,31.25
2018-05-03T13:17:03.906Z,31.71
2018-05-03T13:19:32.371Z,32.47
2018-05-03T13:22:00.795Z,31.57
2018-05-03T13:24:29.212Z,34.13
2018-05-03T13:26:57.661Z,35.21
2018-05-03T13:29:26.089Z,34.75
2018-05-03T13:31:54.522Z,33.15
2018-05-03T13:34:23.008Z,33.65
2018-05-03T13:36:51.417Z,33.47
2018-05-03T13:39:19.828Z,34.78
2018-05-03T13:41:48.284Z,34.02
2018-05-03T13:44:16.707Z,32.71
2018-05-03T13:46:45.129Z,33.77
2018-05-03T13:49:13.649Z,32.02
2018-05-03T13:51:42.060Z,31.85
2018-05-03T13:54:10.477Z,33.69
2018-05-03T13:56:38.941Z,32.95
2018-05-03T13:59:07.364Z,33.40
2018-05-03T14:01:35.784Z,35.04
2018-05-03T14:04:04.240Z,33.73
2018-05-03T14:06:32.676Z,33.67
2018-05-03T14:09:01.102Z,33.17
2018-05-03T14:11:29.564Z,33.37
2018-05-03T14:13:57.992Z,33.52
2018-05-03T14:16:26.408Z,33.91
2018-05-03T14:18:54.884Z,34.57
2018-05-03T14:21:23.315Z,35.01
2018-05-03T14:23:51.733Z,34.81
2018-05-03T14:26:20.213Z,34.96
2018-05-03T14:28:48.636Z,35.57
2018-05-03T14:31:17.549Z,36.27
2018-05-03T14:33:46.027Z,36.24
2018-05-03T14:36:14.464Z,36.12
2018-05-03T14:38:42.896Z,33.63
2018-05-03T14:41:11.388Z,37.34
2018-05-03T14:43:39.820Z,37.18
2018-05-03T14:46:08.250Z,37.24
2018-05-03T14:48:36.708Z,34.67
2018-05-03T14:51:05.140Z,34.53
2018-05-03T14:53:33.572Z,34.66
2018-05-03T14:56:02.060Z,36.19
2018-05-03T14:58:30.493Z,36.02
2018-05-03T15:00:58.923Z,34.04
2018-05-03T15:03:27.409Z,35.77
2018-05-03T15:05:55.837Z,35.02
2018-05-03T15:08:24.272Z,33.95
2018-05-03T15:10:52.751Z,34.19
2018-05-03T15:13:21.176Z,35.58
2018-05-03T15:15:49.596Z,34.78
2018-05-03T15:18:18.051Z,35.41
2018-05-03T15:20:46.478Z,36.33
2018-05-03T15:23:14.912Z,37.59
2018-05-03T15:25:43.400Z,36.11
2018-05-03T15:28:11.821Z,35.79
2018-05-03T15:30:40.246Z,36.28
2018-05-03T15:33:08.729Z,35.34
2018-05-03T15:35:37.148Z,35.88
2018-05-03T15:38:05.730Z,34.33
2018-05-03T15:40:34.213Z,35.46
2018-05-03T15:43:02.660Z,35.65
2018-05-03T15:45:31.136Z,35.79
2018-05-03T15:47:59.601Z,34.95
2018-05-03T15:50:28.028Z,35.19
2018-05-03T15:52:56.442Z,36.33
2018-05-03T15:55:24.984Z,35.23
2018-05-03T15:57:53.404Z,36.04
2018-05-03T16:00:21.899Z,36.33
2018-05-03T16:02:50.384Z,37.14
2018-05-03T16:05:18.809Z,35.94
2018-05-03T16:07:47.228Z,35.85
2018-05-03T16:10:15.712Z,37.48
2018-05-03T16:12:44.133Z,38.83
2018-05-03T16:15:12.560Z,38.07
2018-05-03T16:17:41.021Z,38.34
2018-05-03T16:20:09.449Z,38.59
2018-05-03T16:22:37.876Z,39.06
2018-05-03T16:25:06.548Z,37.53
2018-05-03T16:27:34.967Z,38.28
2018-05-03T16:30:03.433Z,36.96
2018-05-03T16:32:31.889Z,37.49
2018-05-03T16:35:00.379Z,37.56
2018-05-03T16:37:28.777Z,37.97
2018-05-03T16:39:57.248Z,38.21
2018-05-03T16:42:25.660Z,37.29
2018-05-03T16:44:54.093Z,38.51
2018-05-03T16:47:22.560Z,39.31
2018-05-03T16:49:51.014Z,39.98
2018-05-03T16:52:19.444Z,41.67
2018-05-03T16:54:47.939Z,40.19
2018-05-03T16:57:16.364Z,38.51
2018-05-03T16:59:44.784Z,39.12
2018-05-03T17:02:13.246Z,37.74
2018-05-03T17:04:41.665Z,38.30
2018-05-03T17:07:10.080Z,37.84
2018-05-03T17:09:38.549Z,38.58
2018-05-03T17:12:06.975Z,38.75
2018-05-03T17:14:35.401Z,38.31
2018-05-03T17:17:03.861Z,38.33
2018-05-03T17:19:32.294Z,38.55
2018-05-03T17:22:00.729Z,38.34
2018-05-03T17:24:29.240Z,38.59
2018-05-03T17:26:57.646Z,38.80
2018-05-03T17:29:26.143Z,39.08
2018-05-03T17:31:55.216Z,38.92
2018-05-03T17:34:23.672Z,38.96
2018-05-03T17:36:52.105Z,38.79
2018-05-03T17:39:20.765Z,39.18
2018-05-03T17:41:49.219Z,39.76
2018-05-03T17:44:17.647Z,39.51
2018-05-03T17:46:46.119Z,39.79
2018-05-03T17:49:14.544Z,39.83
2018-05-03T17:51:42.968Z,39.64
2018-05-03T17:54:11.435Z,39.68
2018-05-03T17:56:39.852Z,40.06
2018-05-03T17:59:08.300Z,39.74
2018-05-03T18:01:36.772Z,39.30
2018-05-03T18:04:05.209Z,39.39
2018-05-03T18:06:33.674Z,39.57
2018-05-03T18:09:02.137Z,39.66
2018-05-03T18:11:30.556Z,39.09
2018-05-03T18:13:58.976Z,39.58
2018-05-03T18:16:27.523Z,39.76
2018-05-03T18:18:55.888Z,39.94
2018-05-03T18:21:24.406Z,40.17
2018-05-03T18:23:52.832Z,39.67
2018-05-03T18:26:21.254Z,40.44
2018-05-03T18:28:49.684Z,39.75
2018-05-03T18:31:18.172Z,40.20
2018-05-03T18:33:46.599Z,40.53
2018-05-03T18:36:15.029Z,40.57
2018-05-03T18:38:43.500Z,40.68
2018-05-03T18:41:12.264Z,41.05
2018-05-03T18:43:40.710Z,40.78
2018-05-03T18:46:09.183Z,40.83
2018-05-03T18:48:37.613Z,40.98
2018-05-03T18:51:06.038Z,40.94
2018-05-03T18:53:34.548Z,40.70
2018-05-03T18:56:02.978Z,41.34
2018-05-03T18:58:31.393Z,41.11
2018-05-03T19:00:59.887Z,41.13
2018-05-03T19:03:28.321Z,41.44
2018-05-03T19:05:56.741Z,41.85
2018-05-03T19:08:25.212Z,41.61
2018-05-03T19:10:53.812Z,42.01
2018-05-03T19:13:22.355Z,42.24
2018-05-03T19:15:50.898Z,42.65
2018-05-03T19:18:19.573Z,42.61
2018-05-03T19:20:48.001Z,42.71
2018-05-03T19:23:16.624Z,42.99
2018-05-03T19:25:45.104Z,42.93
2018-05-03T19:28:13.637Z,43.38
2018-05-03T19:30:42.292Z,43.25
2018-05-03T19:33:10.741Z,43.74
2018-05-03T19:35:39.169Z,43.31
2018-05-03T19:38:07.793Z,43.67
2018-05-03T19:40:36.466Z,43.96
2018-05-03T19:43:05.124Z,43.46
2018-05-03T19:45:33.718Z,43.84
2018-05-03T19:48:02.327Z,44.23
2018-05-03T19:50:30.996Z,43.60
2018-05-03T19:52:59.697Z,44.55
2018-05-03T19:55:28.413Z,44.68
2018-05-03T19:57:56.873Z,45.04
2018-05-03T20:00:25.341Z,45.68
2018-05-03T20:02:53.762Z,47.64
2018-05-03T20:05:22.181Z,48.85
2018-05-03T20:07:50.668Z,48.48
2018-05-03T20:10:19.212Z,48.56
2018-05-03T20:12:47.639Z,48.92
2018-05-03T20:15:16.142Z,49.23
2018-05-03T20:17:44.565Z,49.68
2018-05-03T20:20:12.987Z,50.27
2018-05-03T20:22:41.468Z,51.18
2018-05-03T20:25:09.881Z,51.43
2018-05-03T20:27:38.292Z,51.52
2018-05-03T20:30:06.744Z,51.01
2018-05-03T20:32:35.160Z,50.87
2018-05-03T20:35:03.624Z,51.28
2018-05-03T20:37:32.077Z,52.02
2018-05-03T20:40:00.524Z,52.03
2018-05-03T20:42:28.964Z,51.87
2018-05-03T20:44:57.416Z,52.38
2018-05-03T20:47:25.840Z,53.28
2018-05-03T20:49:54.256Z,52.98
2018-05-03T20:52:22.722Z,53.99
2018-05-03T20:54:51.138Z,53.65
2018-05-03T20:57:19.544Z,53.37
2018-05-03T20:59:48.001Z,52.60
2018-05-03T21:02:16.416Z,52.78
2018-05-03T21:04:44.839Z,53.42
2018-05-03T21:07:13.401Z,53.81
2018-05-03T21:09:41.768Z,53.09
2018-05-03T21:12:10.192Z,54.53
2018-05-03T21:14:38.645Z,54.00
2018-05-03T21:17:07.077Z,56.30
2018-05-03T21:19:35.545Z,57.25
2018-05-03T21:22:04.036Z,57.92
2018-05-03T21:24:32.464Z,56.92
2018-05-03T21:27:00.892Z,57.52
2018-05-03T21:29:29.380Z,56.84
2018-05-03T21:31:57.817Z,57.87
2018-05-03T21:34:26.244Z,58.29
2018-05-03T21:36:54.748Z,58.32
2018-05-03T21:39:23.169Z,57.88
2018-05-03T21:41:51.584Z,57.45
2018-05-03T21:44:20.051Z,58.10
2018-05-03T21:46:48.492Z,57.35
2018-05-03T21:49:16.907Z,57.64
2018-05-03T21:51:45.374Z,57.48
2018-05-03T21:54:13.793Z,57.74
2018-05-03T21:56:42.216Z,57.92
2018-05-03T21:59:10.679Z,57.72
2018-05-03T22:01:39.108Z,57.63
2018-05-03T22:04:07.580Z,57.92
2018-05-03T22:06:36.046Z,57.52
2018-05-03T22:09:04.527Z,57.15
2018-05-03T22:11:32.960Z,56.94
2018-05-03T22:14:01.433Z,56.33
2018-05-03T22:16:29.851Z,56.60
2018-05-03T22:18:58.283Z,56.93
2018-05-03T22:21:26.765Z,56.91
2018-05-03T22:23:55.189Z,57.12
2018-05-03T22:26:23.628Z,57.33
2018-05-03T22:28:52.104Z,57.61
2018-05-03T22:31:20.533Z,57.42
2018-05-03T22:33:48.947Z,58.07
2018-05-03T22:36:17.420Z,58.41
2018-05-03T22:38:45.831Z,59.25
2018-05-03T22:41:14.245Z,59.71
2018-05-03T22:43:42.707Z,60.63
2018-05-03T22:46:11.124Z,60.08
2018-05-03T22:48:39.540Z,59.70
2018-05-03T22:51:08.000Z,60.01
2018-05-03T22:53:36.425Z,60.78
2018-05-03T22:56:04.844Z,61.61
2018-05-03T22:58:33.298Z,60.78
2018-05-03T23:01:01.716Z,62.09
2018-05-03T23:03:30.146Z,61.26
2018-05-03T23:05:58.619Z,62.23
2018-05-03T23:08:27.032Z,62.06
2018-05-03T23:10:55.441Z,61.96
2018-05-03T23:13:23.892Z,61.92
2018-05-03T23:15:52.307Z,61.84
2018-05-03T23:18:20.729Z,61.41
2018-05-03T23:20:49.186Z,61.83
2018-05-03T23:23:17.604Z,61.77
2018-05-03T23:25:46.020Z,61.54
2018-05-03T23:28:14.477Z,63.62
2018-05-03T23:30:42.902Z,63.14
2018-05-03T23:33:11.348Z,65.21
2018-05-03T23:35:39.796Z,65.30
2018-05-03T23:38:08.219Z,64.69
2018-05-03T23:40:36.644Z,64.83
2018-05-03T23:43:05.099Z,64.42
2018-05-03T23:45:33.548Z,64.19
2018-05-03T23:48:01.971Z,64.04
2018-05-03T23:50:30.635Z,64.07
2018-05-03T23:52:59.055Z,63.98
2018-05-03T23:55:27.483Z,64.79
2018-05-03T23:57:55.953Z,64.41
